createdAt,value
2017-10-11T00:00:44.264Z,46.67
2017-10-11T00:01:44.250Z,46.58
2017-10-11T00:02:43.904Z,46.1
2017-10-11T00:03:44.234Z,46.96
2017-10-11T00:04:44.211Z,46.77
2017-10-11T00:05:43.863Z,46.58
2017-10-11T00:06:44.182Z,46.67
2017-10-11T00:07:44.169Z,46.67
2017-10-11T00:08:43.820Z,46.58
2017-10-11T00:09:43.809Z,46.67
2017-10-11T00:10:43.794Z,47.16
2017-10-11T00:11:44.118Z,47.82
2017-10-11T00:12:44.097Z,47.82
2017-10-11T00:13:43.757Z,48.3
2017-10-11T00:14:44.070Z,48.21
2017-10-11T00:15:44.064Z,47.92
2017-10-11T00:16:44.044Z,47.82
2017-10-11T00:17:43.696Z,48.3
2017-10-11T00:18:43.678Z,48.39
2017-10-11T00:19:44.204Z,49.93
2017-10-11T00:20:43.650Z,49.74
2017-10-11T00:21:43.980Z,49.55
2017-10-11T00:22:43.961Z,50.21
2017-10-11T00:23:43.952Z,49.84
2017-10-11T00:24:43.934Z,50.02
2017-10-11T00:25:43.583Z,50.6
2017-10-11T00:26:43.909Z,48.97
2017-10-11T00:27:43.552Z,49.16
2017-10-11T00:28:43.880Z,49.45
2017-10-11T00:29:43.527Z,49.07
2017-10-11T00:30:43.514Z,49.26
2017-10-11T00:31:43.830Z,49.07
2017-10-11T00:32:43.487Z,47.82
2017-10-11T00:33:43.804Z,48.59
2017-10-11T00:34:43.456Z,49.84
2017-10-11T00:35:43.447Z,49.55
2017-10-11T00:36:43.761Z,50.02
2017-10-11T00:37:43.418Z,50.41
2017-10-11T00:38:43.740Z,50.89
2017-10-11T00:39:43.723Z,51.36
2017-10-11T00:40:43.373Z,50.31
2017-10-11T00:41:43.362Z,51.46
2017-10-11T00:42:43.352Z,51.46
2017-10-11T00:43:43.331Z,50.89
2017-10-11T00:44:43.325Z,51.46
2017-10-11T00:45:43.303Z,52.32
2017-10-11T00:46:43.292Z,52.8
2017-10-11T00:47:43.274Z,53.37
2017-10-11T00:48:43.260Z,52.32
2017-10-11T00:49:43.243Z,52.03
2017-10-11T00:50:43.236Z,52.8
2017-10-11T00:51:43.549Z,52.89
2017-10-11T00:52:43.538Z,52.7
2017-10-11T00:53:43.527Z,52.22
2017-10-11T00:54:43.514Z,52.8
2017-10-11T00:55:43.164Z,51.84
2017-10-11T00:56:43.148Z,52.51
2017-10-11T00:57:43.135Z,52.7
2017-10-11T00:58:43.459Z,52.13
2017-10-11T00:59:43.110Z,51.75
2017-10-11T01:00:43.426Z,51.56
2017-10-11T01:01:43.078Z,52.42
2017-10-11T01:02:43.064Z,51.84
2017-10-11T01:03:43.051Z,52.03
2017-10-11T01:04:43.240Z,51.75
2017-10-11T01:05:43.357Z,52.32
2017-10-11T01:06:43.005Z,50.7
2017-10-11T01:07:43.325Z,51.07
2017-10-11T01:08:43.313Z,50.7
2017-10-11T01:09:43.302Z,51.56
2017-10-11T01:10:42.949Z,51.17
2017-10-11T01:11:42.937Z,51.84
2017-10-11T01:12:42.922Z,51.93
2017-10-11T01:13:42.910Z,51.65
2017-10-11T01:29:14.869Z,50.6
2017-10-11T01:30:13.629Z,49.35
2017-10-11T01:31:13.625Z,49.16
2017-10-11T01:32:13.608Z,49.26
2017-10-11T01:33:13.248Z,49.16
2017-10-11T01:34:13.233Z,50.02
2017-10-11T01:35:13.553Z,49.74
2017-10-11T01:36:13.535Z,50.02
2017-10-11T01:37:13.530Z,49.35
2017-10-11T01:38:13.513Z,49.55
2017-10-11T01:39:13.168Z,50.89
2017-10-11T01:40:13.146Z,50.98
2017-10-11T01:41:13.137Z,50.79
2017-10-11T01:42:13.124Z,52.89
2017-10-11T01:43:13.459Z,52.8
2017-10-11T01:44:13.090Z,54.23
2017-10-11T01:45:13.078Z,54.8
2017-10-11T01:46:13.404Z,54.23
2017-10-11T01:47:13.052Z,53.94
2017-10-11T01:48:13.371Z,54.9
2017-10-11T01:49:13.372Z,54.04
2017-10-11T01:50:13.346Z,53.94
2017-10-11T01:51:13.326Z,53.18
2017-10-11T01:52:13.316Z,52.8
2017-10-11T01:53:12.968Z,53.08
2017-10-11T01:54:12.955Z,52.99
2017-10-11T01:55:12.945Z,53.37
2017-10-11T01:56:13.258Z,54.04
2017-10-11T01:57:13.249Z,53.37
2017-10-11T01:58:12.894Z,53.75
2017-10-11T01:59:13.217Z,53.75
2017-10-11T02:00:13.197Z,53.56
2017-10-11T02:01:13.188Z,53.28
2017-10-11T02:02:13.167Z,53.66
2017-10-11T02:03:13.160Z,54.04
2017-10-11T02:04:13.151Z,54.33
2017-10-11T02:05:12.795Z,53.66
2017-10-11T02:06:13.115Z,53.08
2017-10-11T02:07:12.769Z,53.28
2017-10-11T02:08:12.760Z,53.66
2017-10-11T02:09:13.081Z,54.04
2017-10-11T02:10:13.058Z,54.04
2017-10-11T02:11:12.711Z,53.75
2017-10-11T02:12:13.032Z,53.85
2017-10-11T02:13:12.684Z,53.47
2017-10-11T02:14:13.005Z,54.23
2017-10-11T02:15:12.990Z,54.14
2017-10-11T02:16:12.642Z,54.71
2017-10-11T02:17:12.961Z,54.43
2017-10-11T02:18:12.619Z,54.14
2017-10-11T02:19:12.600Z,53.94
2017-10-11T02:20:12.786Z,54.04
2017-10-11T02:21:12.572Z,53.94
2017-10-11T02:22:12.894Z,53.18
2017-10-11T02:23:12.879Z,53.28
2017-10-11T02:24:12.537Z,52.99
2017-10-11T02:25:12.848Z,53.08
2017-10-11T02:26:12.831Z,54.14
2017-10-11T02:27:12.833Z,54.71
2017-10-11T02:28:12.476Z,55
2017-10-11T02:29:12.455Z,54.61
2017-10-11T02:30:12.446Z,54.61
2017-10-11T02:31:12.428Z,54.61
2017-10-11T02:32:12.751Z,54.43
2017-10-11T02:33:12.765Z,53.56
2017-10-11T02:34:12.389Z,53.66
2017-10-11T02:35:12.707Z,53.94
2017-10-11T02:36:12.359Z,53.56
2017-10-11T02:37:12.345Z,53.85
2017-10-11T02:38:12.330Z,54.61
2017-10-11T02:39:12.319Z,54.9
2017-10-11T02:40:12.634Z,54.04
2017-10-11T02:41:12.621Z,53.56
2017-10-11T02:42:12.621Z,53.85
2017-10-11T02:43:12.267Z,53.75
2017-10-11T02:44:12.246Z,54.23
2017-10-11T02:45:12.242Z,54.33
2017-10-11T02:46:12.550Z,53.56
2017-10-11T02:47:12.214Z,53.56
2017-10-11T02:48:12.522Z,53.28
2017-10-11T02:49:12.181Z,52.13
2017-10-11T02:50:12.167Z,52.8
2017-10-11T02:51:12.483Z,53.18
2017-10-11T02:52:12.475Z,52.61
2017-10-11T02:53:12.457Z,52.8
2017-10-11T02:54:12.124Z,51.93
2017-10-11T02:55:12.434Z,52.7
2017-10-11T02:56:12.082Z,52.22
2017-10-11T02:57:12.400Z,51.75
2017-10-11T02:58:12.386Z,52.32
2017-10-11T02:59:12.373Z,51.75
2017-10-11T03:00:12.358Z,51.75
2017-10-11T03:01:12.342Z,51.84
2017-10-11T03:02:12.345Z,51.46
2017-10-11T03:03:12.312Z,51.36
2017-10-11T03:04:12.309Z,51.46
2017-10-11T03:05:12.289Z,51.46
2017-10-11T03:06:11.939Z,51.07
2017-10-11T03:07:12.267Z,51.36
2017-10-11T03:08:11.910Z,51.46
2017-10-11T03:09:12.237Z,51.84
2017-10-11T03:10:12.216Z,50.89
2017-10-11T03:11:11.868Z,51.17
2017-10-11T03:12:11.853Z,51.36
2017-10-11T03:13:11.841Z,51.46
2017-10-11T03:14:11.825Z,51.75
2017-10-11T03:15:12.145Z,51.84
2017-10-11T03:16:12.131Z,51.36
2017-10-11T03:17:12.118Z,52.51
2017-10-11T03:18:12.105Z,51.84
2017-10-11T03:19:12.090Z,51.84
2017-10-11T03:20:12.080Z,51.84
2017-10-11T03:21:11.741Z,51.36
2017-10-11T03:22:11.716Z,51.84
2017-10-11T03:23:12.032Z,52.89
2017-10-11T03:24:12.026Z,54.8
2017-10-11T03:25:12.008Z,53.94
2017-10-11T03:26:11.663Z,53.85
2017-10-11T03:27:11.979Z,55.86
2017-10-11T03:28:11.963Z,55.19
2017-10-11T03:29:11.952Z,55.47
2017-10-11T03:30:11.944Z,55.1
2017-10-11T03:31:11.591Z,55.29
2017-10-11T03:32:11.574Z,55
2017-10-11T03:33:11.573Z,54.04
2017-10-11T03:34:11.883Z,54.71
2017-10-11T03:35:11.866Z,55
2017-10-11T03:36:11.853Z,55.29
2017-10-11T03:37:11.507Z,55
2017-10-11T03:38:11.824Z,54.04
2017-10-11T03:39:11.478Z,54.9
2017-10-11T03:40:11.795Z,54.52
2017-10-11T03:41:11.785Z,55
2017-10-11T03:42:11.787Z,55.38
2017-10-11T03:43:11.753Z,56.91
2017-10-11T03:44:11.739Z,57.68
2017-10-11T03:45:11.731Z,56.91
2017-10-11T03:46:11.710Z,55.76
2017-10-11T03:47:11.705Z,57.77
2017-10-11T03:48:11.681Z,57.68
2017-10-11T03:49:11.672Z,57.68
2017-10-11T03:50:11.657Z,57.77
2017-10-11T03:51:11.665Z,57.1
2017-10-11T03:52:11.630Z,58.63
2017-10-11T03:53:11.618Z,58.63
2017-10-11T03:54:11.603Z,59.88
2017-10-11T03:55:11.255Z,60.26
2017-10-11T03:56:11.573Z,59.69
2017-10-11T03:57:11.578Z,59.66
2017-10-11T03:58:11.209Z,59.97
2017-10-11T03:59:11.529Z,59.66
2017-10-11T04:00:11.516Z,60.74
2017-10-11T04:01:11.501Z,60.45
2017-10-11T04:02:11.156Z,60.9
2017-10-11T04:03:11.137Z,61.22
2017-10-11T04:04:11.121Z,61.69
2017-10-11T04:05:11.444Z,62.65
2017-10-11T04:06:11.431Z,63.42
2017-10-11T04:07:11.085Z,63.03
2017-10-11T04:08:11.403Z,62.37
2017-10-11T04:09:11.387Z,62.08
2017-10-11T04:10:11.042Z,62.74
2017-10-11T04:11:11.027Z,62.65
2017-10-11T04:12:11.345Z,62.27
2017-10-11T04:13:11.332Z,62.33
2017-10-11T04:14:11.317Z,61.98
2017-10-11T04:15:10.969Z,62.9
2017-10-11T04:16:11.288Z,62.17
2017-10-11T04:17:11.281Z,61.47
2017-10-11T04:18:10.926Z,62.74
2017-10-11T04:19:10.914Z,64.18
2017-10-11T04:20:11.437Z,63.57
2017-10-11T04:21:11.218Z,64.47
2017-10-11T04:22:11.200Z,63.67
2017-10-11T04:23:10.855Z,62.46
2017-10-11T04:24:11.174Z,62.46
2017-10-11T04:25:10.835Z,63.48
2017-10-11T04:26:11.149Z,63.96
2017-10-11T04:27:11.136Z,63.86
2017-10-11T04:28:10.789Z,63.29
2017-10-11T04:29:10.772Z,65.11
2017-10-11T04:30:10.761Z,64.72
2017-10-11T04:31:11.075Z,63.57
2017-10-11T04:32:10.732Z,62.52
2017-10-11T04:33:11.049Z,64.34
2017-10-11T04:34:11.038Z,64.25
2017-10-11T04:35:10.686Z,64.53
2017-10-11T04:36:10.673Z,64.72
2017-10-11T04:37:10.989Z,64.62
2017-10-11T04:38:10.644Z,64.62
2017-10-11T04:39:10.627Z,64.82
2017-10-11T04:40:10.954Z,65.68
2017-10-11T04:41:10.600Z,65.68
2017-10-11T04:42:10.921Z,64.82
2017-10-11T04:43:10.907Z,66.35
2017-10-11T04:44:10.555Z,63.39
2017-10-11T04:45:10.543Z,63.57
2017-10-11T04:46:10.527Z,63.6
2017-10-11T04:47:10.517Z,63.39
2017-10-11T04:48:10.501Z,64.34
2017-10-11T04:49:10.818Z,63.29
2017-10-11T04:50:10.471Z,63.19
2017-10-11T04:51:10.558Z,61.47
2017-10-11T04:52:10.780Z,62.81
2017-10-11T04:53:10.763Z,62.9
2017-10-11T04:54:10.750Z,64.25
2017-10-11T04:55:10.762Z,62.62
2017-10-11T04:56:10.733Z,63.57
2017-10-11T04:57:10.376Z,62.81
2017-10-11T04:58:10.365Z,62.71
2017-10-11T04:59:10.681Z,63.39
2017-10-11T05:00:10.667Z,62.9
2017-10-11T05:01:10.665Z,61.76
2017-10-11T05:02:10.303Z,62.71
2017-10-11T05:03:10.627Z,62.24
2017-10-11T05:04:10.609Z,62.43
2017-10-11T05:05:10.262Z,63.57
2017-10-11T05:06:10.584Z,63.39
2017-10-11T05:07:10.571Z,63.29
2017-10-11T05:08:10.223Z,64.62
2017-10-11T05:09:10.216Z,63.57
2017-10-11T05:10:10.527Z,63.48
2017-10-11T05:11:10.514Z,63.39
2017-10-11T05:12:10.505Z,62.14
2017-10-11T05:13:10.157Z,63.19
2017-10-11T05:14:10.137Z,64.15
2017-10-11T05:15:10.132Z,63.19
2017-10-11T05:16:10.456Z,64.25
2017-10-11T05:17:10.426Z,63.29
2017-10-11T05:18:10.410Z,63.29
2017-10-11T05:19:10.065Z,64.43
2017-10-11T05:20:10.050Z,63
2017-10-11T05:21:10.033Z,64.91
2017-10-11T05:22:10.024Z,64.43
2017-10-11T05:23:10.008Z,65.2
2017-10-11T05:24:10.337Z,64.91
2017-10-11T05:25:10.316Z,64.82
2017-10-11T05:26:10.302Z,63.39
2017-10-11T05:27:09.955Z,63.29
2017-10-11T05:28:10.267Z,64.43
2017-10-11T05:29:09.918Z,63.29
2017-10-11T05:30:09.914Z,62.52
2017-10-11T05:31:10.231Z,62.71
2017-10-11T05:32:10.212Z,63.19
2017-10-11T05:33:09.862Z,64.43
2017-10-11T05:34:09.850Z,64.15
2017-10-11T05:35:10.172Z,64.62
2017-10-11T05:36:10.163Z,63.48
2017-10-11T05:37:10.146Z,63
2017-10-11T05:38:10.127Z,63.57
2017-10-11T05:39:10.115Z,64.43
2017-10-11T05:40:10.102Z,62.71
2017-10-11T05:41:10.086Z,63.29
2017-10-11T05:42:10.075Z,63.39
2017-10-11T05:43:09.722Z,63.96
2017-10-11T05:44:09.717Z,63.86
2017-10-11T05:45:09.693Z,64.82
2017-10-11T05:46:09.681Z,65.39
2017-10-11T05:47:09.999Z,64.82
2017-10-11T05:48:09.661Z,65.39
2017-10-11T05:49:09.972Z,64.91
2017-10-11T05:50:09.625Z,64.82
2017-10-11T05:51:09.949Z,64.82
2017-10-11T05:52:09.594Z,64.72
2017-10-11T05:53:09.582Z,64.72
2017-10-11T05:54:09.903Z,63.96
2017-10-11T05:55:09.550Z,63.39
2017-10-11T05:56:09.874Z,64.72
2017-10-11T05:57:09.857Z,64.25
2017-10-11T05:58:09.509Z,64.43
2017-10-11T05:59:09.833Z,64.82
2017-10-11T06:00:09.486Z,63.67
2017-10-11T06:01:09.800Z,63.39
2017-10-11T06:02:09.452Z,62.52
2017-10-11T06:03:09.778Z,63.39
2017-10-11T06:04:09.427Z,64.53
2017-10-11T06:05:09.750Z,64.72
2017-10-11T06:06:09.398Z,63.19
2017-10-11T06:07:09.716Z,64.47
2017-10-11T06:08:09.367Z,63.51
2017-10-11T06:09:09.353Z,63.39
2017-10-11T06:10:09.681Z,63.67
2017-10-11T06:11:09.327Z,63.8
2017-10-11T06:12:09.642Z,63.6
2017-10-11T06:13:09.299Z,63.51
2017-10-11T06:14:09.280Z,63.51
2017-10-11T06:15:09.267Z,63
2017-10-11T06:16:09.590Z,62.84
2017-10-11T06:17:09.575Z,62.46
2017-10-11T06:18:09.231Z,63.6
2017-10-11T06:19:09.546Z,63.51
2017-10-11T06:20:09.734Z,63.6
2017-10-11T06:21:09.185Z,62.65
2017-10-11T06:22:09.166Z,63.51
2017-10-11T06:23:09.488Z,62.37
2017-10-11T06:24:09.141Z,62.84
2017-10-11T06:25:09.457Z,63.32
2017-10-11T06:26:09.445Z,62.74
2017-10-11T06:27:09.427Z,62.08
2017-10-11T06:28:09.084Z,63.42
2017-10-11T06:29:09.406Z,61.88
2017-10-11T06:30:09.395Z,62.46
2017-10-11T06:31:09.042Z,62.94
2017-10-11T06:32:09.361Z,62.08
2017-10-11T06:33:09.352Z,62.37
2017-10-11T06:34:09.000Z,62.27
2017-10-11T06:35:09.321Z,61.22
2017-10-11T06:36:09.303Z,61.02
2017-10-11T06:37:09.297Z,61.6
2017-10-11T06:38:09.283Z,61.79
2017-10-11T06:39:09.258Z,61.88
2017-10-11T06:40:09.248Z,61.6
2017-10-11T06:41:08.900Z,60.64
2017-10-11T06:42:08.887Z,60.83
2017-10-11T06:43:08.873Z,60.83
2017-10-11T06:44:08.867Z,61.02
2017-10-11T06:45:09.183Z,61.6
2017-10-11T06:46:09.170Z,61.6
2017-10-11T06:47:09.152Z,61.6
2017-10-11T06:48:08.805Z,60.64
2017-10-11T06:49:08.788Z,60.83
2017-10-11T06:50:08.776Z,60.74
2017-10-11T06:51:09.098Z,60.64
2017-10-11T06:52:09.083Z,61.22
2017-10-11T06:53:09.066Z,60.74
2017-10-11T06:54:09.054Z,61.12
2017-10-11T06:55:09.045Z,60.06
2017-10-11T06:56:09.025Z,60.35
2017-10-11T06:57:09.014Z,60.55
2017-10-11T06:58:08.664Z,60.55
2017-10-11T06:59:08.980Z,60.35
2017-10-11T07:00:08.638Z,61.02
2017-10-11T07:01:08.960Z,60.45
2017-10-11T07:02:08.617Z,60.16
2017-10-11T07:03:08.598Z,60.45
2017-10-11T07:04:08.583Z,60.26
2017-10-11T07:05:08.899Z,60.64
2017-10-11T07:06:08.553Z,60.35
2017-10-11T07:07:08.873Z,59.49
2017-10-11T07:08:08.860Z,60.16
2017-10-11T07:09:08.838Z,60.26
2017-10-11T07:10:08.498Z,60.64
2017-10-11T07:11:08.817Z,60.93
2017-10-11T07:12:08.473Z,60.26
2017-10-11T07:13:08.796Z,60.26
2017-10-11T07:14:08.455Z,59.69
2017-10-11T07:15:08.432Z,61.69
2017-10-11T07:16:08.746Z,62.94
2017-10-11T07:17:08.401Z,63.13
2017-10-11T07:18:08.384Z,61.98
2017-10-11T07:19:08.375Z,63.03
2017-10-11T07:20:08.360Z,62.37
2017-10-11T07:21:08.345Z,62.46
2017-10-11T07:22:08.667Z,61.41
2017-10-11T07:23:08.654Z,62.46
2017-10-11T07:24:08.635Z,63.13
2017-10-11T07:25:08.301Z,63.13
2017-10-11T07:26:08.610Z,62.94
2017-10-11T07:27:08.261Z,64.56
2017-10-11T07:28:08.581Z,62.94
2017-10-11T07:29:08.235Z,64.18
2017-10-11T07:30:08.560Z,65.23
2017-10-11T07:31:08.206Z,63.99
2017-10-11T07:32:08.527Z,63.13
2017-10-11T07:33:08.180Z,64.09
2017-10-11T07:34:08.499Z,62.11
2017-10-11T07:35:08.159Z,64.31
2017-10-11T07:36:08.481Z,64.59
2017-10-11T07:37:08.123Z,64.5
2017-10-11T07:38:08.444Z,64.69
2017-10-11T07:39:08.099Z,64.4
2017-10-11T07:40:08.416Z,65.55
2017-10-11T07:41:08.406Z,66.03
2017-10-11T07:42:08.059Z,66.51
2017-10-11T07:43:08.044Z,66.89
2017-10-11T07:44:08.031Z,65.45
2017-10-11T07:45:08.354Z,65.55
2017-10-11T07:46:08.011Z,65.08
2017-10-11T07:47:07.997Z,66.99
2017-10-11T07:48:08.008Z,66.61
2017-10-11T07:49:07.961Z,66.8
2017-10-11T07:50:08.284Z,67.76
2017-10-11T07:51:07.934Z,68.52
2017-10-11T07:52:08.260Z,71.48
2017-10-11T07:53:08.241Z,70.62
2017-10-11T07:54:08.237Z,71.11
2017-10-11T07:55:07.881Z,70.81
2017-10-11T07:56:07.869Z,72.92
2017-10-11T07:57:08.188Z,72.63
2017-10-11T07:58:08.173Z,73.34
2017-10-11T07:59:08.167Z,73.72
2017-10-11T08:00:07.819Z,74.4
2017-10-11T08:01:08.144Z,73.91
2017-10-11T08:02:08.123Z,73.05
2017-10-11T08:03:08.122Z,75.16
2017-10-11T08:04:07.761Z,73.63
2017-10-11T08:05:08.086Z,76.02
2017-10-11T08:06:07.744Z,75.45
2017-10-11T08:07:08.066Z,76.12
2017-10-11T08:08:07.717Z,75.93
2017-10-11T08:09:08.032Z,76.79
2017-10-11T08:10:08.022Z,78.8
2017-10-11T08:11:07.675Z,77.94
2017-10-11T08:12:07.998Z,77.46
2017-10-11T08:13:07.980Z,77.26
2017-10-11T08:14:07.983Z,77.36
2017-10-11T08:15:07.953Z,75.93
2017-10-11T08:16:07.946Z,79.95
2017-10-11T08:17:07.926Z,80.04
2017-10-11T08:18:07.917Z,77.08
2017-10-11T08:19:07.906Z,76.69
2017-10-11T08:20:08.107Z,77.94
2017-10-11T08:21:07.876Z,76.89
2017-10-11T08:22:07.533Z,76.6
2017-10-11T08:23:07.857Z,77.08
2017-10-11T08:24:07.511Z,77.46
2017-10-11T08:25:07.829Z,77.84
2017-10-11T08:26:07.816Z,76.98
2017-10-11T08:27:07.472Z,76.02
2017-10-11T08:28:07.797Z,75.93
2017-10-11T08:29:07.447Z,76.89
2017-10-11T08:30:07.763Z,75.26
2017-10-11T08:31:07.417Z,76.31
2017-10-11T08:32:07.404Z,76.94
2017-10-11T08:33:07.728Z,76.21
2017-10-11T08:34:07.377Z,78.99
2017-10-11T08:35:07.696Z,78.8
2017-10-11T08:36:07.353Z,76.79
2017-10-11T08:37:07.337Z,77.55
2017-10-11T08:38:07.662Z,76.69
2017-10-11T08:39:07.314Z,75.26
2017-10-11T08:40:07.299Z,77.36
2017-10-11T08:41:07.645Z,76.31
2017-10-11T08:42:07.275Z,78.03
2017-10-11T08:43:07.596Z,76.98
2017-10-11T08:44:07.250Z,79.08
2017-10-11T08:45:07.581Z,79.66
2017-10-11T08:46:07.228Z,78.03
2017-10-11T08:47:07.540Z,77.46
2017-10-11T08:48:07.198Z,78.03
2017-10-11T08:49:07.182Z,76.79
2017-10-11T08:50:07.512Z,76.4
2017-10-11T08:51:07.493Z,76.12
2017-10-11T08:52:07.483Z,77.26
2017-10-11T08:53:07.130Z,78.32
2017-10-11T08:54:07.451Z,77.46
2017-10-11T08:55:07.103Z,79.75
2017-10-11T08:56:07.096Z,77.55
2017-10-11T08:57:07.081Z,79.37
2017-10-11T08:58:07.406Z,79.28
2017-10-11T08:59:07.056Z,80.62
2017-10-11T09:00:07.046Z,80.52
2017-10-11T09:01:07.359Z,78.61
2017-10-11T09:02:07.350Z,79.57
2017-10-11T09:03:07.337Z,82.34
2017-10-11T09:04:07.332Z,82.63
2017-10-11T09:05:07.309Z,81.86
2017-10-11T09:06:07.301Z,81.57
2017-10-11T09:07:06.950Z,82.15
2017-10-11T09:08:06.943Z,81.1
2017-10-11T09:09:07.265Z,82.06
2017-10-11T09:10:07.251Z,82.63
2017-10-11T09:11:06.896Z,83.2
2017-10-11T09:12:07.231Z,82.24
2017-10-11T09:13:06.873Z,83.2
2017-10-11T09:14:06.864Z,82.06
2017-10-11T09:15:06.847Z,82.43
2017-10-11T09:16:07.172Z,83.11
2017-10-11T09:17:06.820Z,84.26
2017-10-11T09:18:07.143Z,84.06
2017-10-11T09:19:07.126Z,82.24
2017-10-11T09:20:07.112Z,83.01
2017-10-11T09:21:06.779Z,81.29
2017-10-11T09:22:07.088Z,81.67
2017-10-11T09:23:07.079Z,82.34
2017-10-11T09:24:07.061Z,83.11
2017-10-11T09:25:07.050Z,82.82
2017-10-11T09:26:07.042Z,83.39
2017-10-11T09:27:07.025Z,82.06
2017-10-11T09:28:06.679Z,81.67
2017-10-11T09:29:06.664Z,83.01
2017-10-11T09:30:06.653Z,82.43
2017-10-11T09:31:06.973Z,83.2
2017-10-11T09:32:06.628Z,84.55
2017-10-11T09:33:06.612Z,83.3
2017-10-11T09:34:06.604Z,83.59
2017-10-11T09:35:06.927Z,83.78
2017-10-11T09:36:06.906Z,83.3
2017-10-11T09:37:06.562Z,82.15
2017-10-11T09:38:06.882Z,84.26
2017-10-11T09:39:06.868Z,85.31
2017-10-11T09:40:06.856Z,86.27
2017-10-11T09:41:06.509Z,86.46
2017-10-11T09:42:06.832Z,86.08
2017-10-11T09:43:06.826Z,88.28
2017-10-11T09:44:06.471Z,87.51
2017-10-11T09:45:06.796Z,88.56
2017-10-11T09:46:06.780Z,87.7
2017-10-11T09:47:06.774Z,86.27
2017-10-11T09:48:06.761Z,86.74
2017-10-11T09:49:06.412Z,87.61
2017-10-11T09:50:06.728Z,90
2017-10-11T09:51:06.720Z,88.66
2017-10-11T09:52:06.371Z,87.7
2017-10-11T09:53:06.691Z,88.51
2017-10-11T09:54:06.350Z,90.96
2017-10-11T09:55:06.683Z,90.72
2017-10-11T09:56:06.665Z,92.54
2017-10-11T09:57:06.309Z,90.91
2017-10-11T09:58:06.633Z,90.33
2017-10-11T09:59:06.620Z,93.11
2017-10-11T10:00:06.606Z,92.15
2017-10-11T10:01:06.590Z,91.67
2017-10-11T10:02:06.578Z,90.14
2017-10-11T10:03:06.232Z,94.45
2017-10-11T10:04:06.553Z,94.84
2017-10-11T10:05:06.209Z,94.35
2017-10-11T10:06:06.196Z,95.7
2017-10-11T10:07:06.180Z,96.37
2017-10-11T10:08:06.167Z,95.89
2017-10-11T10:09:06.158Z,94.64
2017-10-11T10:10:06.349Z,91.58
2017-10-11T10:11:06.128Z,93.49
2017-10-11T10:12:06.118Z,92.44
2017-10-11T10:13:06.444Z,94.84
2017-10-11T10:14:06.093Z,92.4
2017-10-11T10:15:06.081Z,90.39
2017-10-11T10:16:06.067Z,92.58
2017-10-11T10:17:06.055Z,92.44
2017-10-11T10:18:06.041Z,90.62
2017-10-11T10:19:06.029Z,91.86
2017-10-11T10:20:06.225Z,91
2017-10-11T10:21:06.340Z,92.15
2017-10-11T10:22:06.333Z,91.49
2017-10-11T10:23:06.311Z,92.06
2017-10-11T10:24:05.968Z,91.96
2017-10-11T10:25:06.286Z,92.35
2017-10-11T10:26:06.272Z,91.19
2017-10-11T10:27:06.263Z,92.25
2017-10-11T10:28:05.914Z,91.96
2017-10-11T10:29:06.261Z,92.54
2017-10-11T10:30:06.225Z,90.81
2017-10-11T10:31:05.880Z,91.58
2017-10-11T10:32:06.203Z,91.49
2017-10-11T10:33:06.187Z,90.62
2017-10-11T10:34:06.181Z,92.82
2017-10-11T10:35:06.162Z,93.11
2017-10-11T10:36:06.154Z,92.92
2017-10-11T10:37:06.140Z,92.25
2017-10-11T10:38:06.125Z,92.63
2017-10-11T10:39:05.778Z,92.73
2017-10-11T10:40:05.765Z,90.72
2017-10-11T10:41:06.088Z,91.19
2017-10-11T10:42:05.747Z,90.72
2017-10-11T10:43:06.067Z,90.53
2017-10-11T10:44:06.053Z,91
2017-10-11T10:45:05.709Z,91.49
2017-10-11T10:46:06.023Z,91.58
2017-10-11T10:47:06.011Z,89.95
2017-10-11T10:49:05.654Z,89.18
2017-10-11T10:50:05.986Z,89.66
2017-10-11T10:51:05.966Z,89.28
2017-10-11T10:52:05.618Z,88.42
2017-10-11T10:53:05.937Z,88.8
2017-10-11T10:54:05.925Z,87.65
2017-10-11T10:55:05.577Z,88.13
2017-10-11T10:56:05.899Z,88.95
2017-10-11T10:57:05.559Z,89.14
2017-10-11T10:58:05.875Z,87.23
2017-10-11T10:59:05.531Z,89.47
2017-10-11T11:00:05.856Z,87.8
2017-10-11T11:01:05.505Z,87.8
2017-10-11T11:02:05.496Z,90.09
2017-10-11T11:03:05.488Z,90
2017-10-11T11:04:05.469Z,88.18
2017-10-11T11:05:05.455Z,87.7
2017-10-11T11:06:05.774Z,90.48
2017-10-11T11:07:05.762Z,89.9
2017-10-11T11:08:05.756Z,89.43
2017-10-11T11:09:05.406Z,88.85
2017-10-11T11:10:05.724Z,87.13
2017-10-11T11:11:05.379Z,89.43
2017-10-11T11:12:05.363Z,89.43
2017-10-11T11:13:05.351Z,88.95
2017-10-11T11:14:05.339Z,87.41
2017-10-11T11:15:05.661Z,88.85
2017-10-11T11:16:05.650Z,90.58
2017-10-11T11:17:05.640Z,88.37
2017-10-11T11:18:05.623Z,89.33
2017-10-11T11:19:05.608Z,90.39
2017-10-11T11:20:05.595Z,90.58
2017-10-11T11:21:05.581Z,91.44
2017-10-11T11:22:05.571Z,90.39
2017-10-11T11:23:05.591Z,90.09
2017-10-11T11:24:05.210Z,87.7
2017-10-11T11:25:05.540Z,87.13
2017-10-11T11:26:05.184Z,87.51
2017-10-11T11:27:05.173Z,87.41
2017-10-11T11:28:05.491Z,88.28
2017-10-11T11:29:05.149Z,88.18
2017-10-11T11:30:05.465Z,87.7
2017-10-11T11:31:05.451Z,88.37
2017-10-11T11:32:05.442Z,89.04
2017-10-11T11:33:05.097Z,88.28
2017-10-11T11:34:05.418Z,87.41
2017-10-11T11:35:05.399Z,88.66
2017-10-11T11:36:05.388Z,89.43
2017-10-11T11:37:05.039Z,88.56
2017-10-11T11:38:05.030Z,89.9
2017-10-11T11:39:05.348Z,89.72
2017-10-11T11:40:05.003Z,88.95
2017-10-11T11:41:05.320Z,89.43
2017-10-11T11:42:04.975Z,88.85
2017-10-11T11:43:04.965Z,89.52
2017-10-11T11:44:05.301Z,88.37
2017-10-11T11:45:05.267Z,89.14
2017-10-11T11:46:04.924Z,89.23
2017-10-11T11:47:04.912Z,87.51
2017-10-11T11:48:05.235Z,88.56
2017-10-11T11:49:04.891Z,88.56
2017-10-11T11:50:05.206Z,87.51
2017-10-11T11:51:04.863Z,88.47
2017-10-11T11:52:04.852Z,87.32
2017-10-11T11:53:05.175Z,87.7
2017-10-11T11:54:05.151Z,86.94
2017-10-11T11:55:04.810Z,89.04
2017-10-11T11:56:05.130Z,87.8
2017-10-11T11:57:04.779Z,87.03
2017-10-11T11:58:04.773Z,88.95
2017-10-11T11:59:05.087Z,88.56
2017-10-11T12:00:05.078Z,89.9
2017-10-11T12:01:04.735Z,88.85
2017-10-11T12:02:05.054Z,89.9
2017-10-11T12:03:05.032Z,90.09
2017-10-11T12:04:04.686Z,92.01
2017-10-11T12:05:04.682Z,89.62
2017-10-11T12:06:04.998Z,89.9
2017-10-11T12:07:04.988Z,89.33
2017-10-11T12:08:04.989Z,91.44
2017-10-11T12:09:04.960Z,90.58
2017-10-11T12:10:04.961Z,90.67
2017-10-11T12:11:04.598Z,91.44
2017-10-11T12:12:04.918Z,89.81
2017-10-11T12:13:04.574Z,91.25
2017-10-11T12:14:04.894Z,92.97
2017-10-11T12:15:04.545Z,93.74
2017-10-11T12:16:04.867Z,90.77
2017-10-11T12:17:04.883Z,91.25
2017-10-11T12:18:04.510Z,91.63
2017-10-11T12:19:04.501Z,92.58
2017-10-11T12:20:04.485Z,92.49
2017-10-11T12:21:04.803Z,91.63
2017-10-11T12:22:04.464Z,91.25
2017-10-11T12:23:04.779Z,91.82
2017-10-11T12:24:04.766Z,92.4
2017-10-11T12:25:04.418Z,92.97
2017-10-11T12:26:04.739Z,96.99
2017-10-11T12:27:04.726Z,95.56
2017-10-11T12:28:04.712Z,95.27
2017-10-11T12:29:04.367Z,94.98
2017-10-11T12:30:04.691Z,93.26
2017-10-11T12:31:04.671Z,93.74
2017-10-11T12:32:04.336Z,93.54
2017-10-11T12:33:04.312Z,93.45
2017-10-11T12:34:04.639Z,94.6
2017-10-11T12:35:04.621Z,93.54
2017-10-11T12:36:04.610Z,91.15
2017-10-11T12:37:04.596Z,92.87
2017-10-11T12:38:04.588Z,94.21
2017-10-11T12:39:04.573Z,94.31
2017-10-11T12:40:04.556Z,92.97
2017-10-11T12:41:04.591Z,95.56
2017-10-11T12:42:04.197Z,93.16
2017-10-11T12:43:04.521Z,94.31
2017-10-11T12:44:04.172Z,94.12
2017-10-11T12:45:04.506Z,94.5
2017-10-11T12:46:04.481Z,94.12
2017-10-11T12:47:04.143Z,95.94
2017-10-11T12:48:04.451Z,94.4
2017-10-11T12:49:04.106Z,94.5
2017-10-11T12:50:04.095Z,96.99
2017-10-11T12:51:04.415Z,96.42
2017-10-11T12:52:04.402Z,97.09
2017-10-11T12:53:04.392Z,94.5
2017-10-11T12:54:04.040Z,95.84
2017-10-11T12:55:04.028Z,95.65
2017-10-11T12:56:04.354Z,94.5
2017-10-11T12:57:04.343Z,96.32
2017-10-11T12:58:03.987Z,95.65
2017-10-11T12:59:03.981Z,95.94
2017-10-11T13:00:04.301Z,97.09
2017-10-11T13:01:04.292Z,97.56
2017-10-11T13:02:03.938Z,98.24
2017-10-11T13:03:04.282Z,97.18
2017-10-11T13:04:04.244Z,96.61
2017-10-11T13:05:04.232Z,95.46
2017-10-11T13:06:03.884Z,96.8
2017-10-11T13:07:03.872Z,96.13
2017-10-11T13:08:04.194Z,97.47
2017-10-11T13:09:04.178Z,99.96
2017-10-11T13:10:04.171Z,97.95
2017-10-11T13:11:03.819Z,98.52
2017-10-11T13:12:03.806Z,97.18